createdAt,value
2023-03-24T00:07:25.510Z,17.66
2023-03-24T00:17:29.166Z,17.66
2023-03-24T00:27:31.155Z,17.64
2023-03-24T00:37:32.549Z,17.59
2023-03-24T00:47:37.939Z,17.59
2023-03-24T00:57:40.747Z,17.60
2023-03-24T01:07:43.178Z,17.58
2023-03-24T01:17:46.965Z,17.59
2023-03-24T01:27:49.503Z,17.59
2023-03-24T01:37:51.013Z,17.57
2023-03-24T01:47:52.432Z,17.57
2023-03-24T01:57:56.348Z,17.54
2023-03-24T02:08:19.666Z,17.52
2023-03-24T02:18:45.192Z,17.53
2023-03-24T02:28:50.052Z,17.51
2023-03-24T02:39:12.812Z,17.52
2023-03-24T02:49:29.114Z,17.49
2023-03-24T02:59:40.522Z,17.49
2023-03-24T03:09:49.696Z,17.50
2023-03-24T03:20:13.219Z,17.46
2023-03-24T03:30:16.716Z,17.48
2023-03-24T03:40:21.866Z,17.47
2023-03-24T03:50:23.468Z,17.46
2023-03-24T04:00:26.344Z,17.47
2023-03-24T04:10:50.114Z,17.48
2023-03-24T04:21:20.186Z,17.51
2023-03-24T04:31:30.159Z,17.49
2023-03-24T04:41:31.823Z,17.49
2023-03-24T04:51:33.429Z,17.48
2023-03-24T05:01:37.361Z,17.50
2023-03-24T05:11:38.991Z,17.50
2023-03-24T05:21:40.781Z,17.66
2023-03-24T05:31:42.188Z,17.90
2023-03-24T05:41:43.572Z,18.18
2023-03-24T05:51:45.165Z,18.44
2023-03-24T06:01:48.152Z,18.61
2023-03-24T06:11:49.752Z,18.67
2023-03-24T06:21:51.313Z,18.73
2023-03-24T06:31:52.872Z,18.76
2023-03-24T06:41:54.233Z,18.80
2023-03-24T06:51:55.834Z,18.87
2023-03-24T07:01:57.389Z,18.87
2023-03-24T07:11:58.792Z,18.84
2023-03-24T07:22:01.298Z,18.92
2023-03-24T07:32:03.802Z,18.94
2023-03-24T07:42:06.166Z,18.87
2023-03-24T07:52:07.621Z,18.95
2023-03-24T08:02:27.267Z,18.97
2023-03-24T08:12:28.866Z,19.08
2023-03-24T08:22:30.456Z,19.33
2023-03-24T08:32:31.883Z,20.01
2023-03-24T08:42:33.395Z,20.75
2023-03-24T08:52:34.803Z,20.58
2023-03-24T09:02:36.516Z,20.98
2023-03-24T09:12:38.214Z,20.78
2023-03-24T09:22:43.417Z,21.01
2023-03-24T09:32:45.468Z,22.65
2023-03-24T09:42:48.527Z,21.15
2023-03-24T09:52:52.679Z,22.89
2023-03-24T10:02:57.660Z,23.80
2023-03-24T10:13:05.698Z,23.08
2023-03-24T10:23:19.178Z,21.85
2023-03-24T10:33:20.838Z,21.38
2023-03-24T10:43:22.252Z,21.41
2023-03-24T10:53:23.629Z,21.21
2023-03-24T11:03:30.008Z,21.31
2023-03-24T11:13:32.922Z,21.32
2023-03-24T11:23:42.733Z,21.31
2023-03-24T11:33:47.508Z,21.27
2023-03-24T11:43:48.912Z,21.20
2023-03-24T11:53:51.768Z,21.11
2023-03-24T12:03:59.401Z,21.05
2023-03-24T12:14:01.239Z,20.99
2023-03-24T12:24:14.606Z,20.95
2023-03-24T12:34:33.609Z,20.99
2023-03-24T12:44:53.668Z,21.00
2023-03-24T12:55:25.785Z,20.94
2023-03-24T13:05:31.352Z,20.93
2023-03-24T13:15:39.529Z,20.86
2023-03-24T13:26:12.264Z,20.81
2023-03-24T13:36:25.700Z,20.67
2023-03-24T13:46:28.751Z,20.68
2023-03-24T13:56:35.571Z,20.62
2023-03-24T14:06:48.233Z,20.56
2023-03-24T14:17:04.821Z,20.48
2023-03-24T14:27:32.693Z,20.34
2023-03-24T14:37:34.076Z,20.29
2023-03-24T14:47:37.501Z,20.21
2023-03-24T14:57:43.530Z,20.12
2023-03-24T15:07:46.543Z,20.07
2023-03-24T15:17:48.271Z,20.02
2023-03-24T15:27:53.078Z,19.95
2023-03-24T15:37:56.206Z,19.92
2023-03-24T15:47:58.202Z,19.84
2023-03-24T15:58:01.430Z,19.77
2023-03-24T16:08:07.309Z,19.70
2023-03-24T16:18:12.862Z,19.58
2023-03-24T16:28:15.982Z,19.48
2023-03-24T16:38:17.387Z,19.34
2023-03-24T16:48:18.798Z,19.30
2023-03-24T16:58:20.263Z,19.18
2023-03-24T17:08:21.714Z,19.13
2023-03-24T17:18:23.300Z,19.14
2023-03-24T17:28:24.822Z,19.12
2023-03-24T17:38:26.890Z,19.02
2023-03-24T17:48:28.425Z,18.93
2023-03-24T17:58:30.756Z,18.84
2023-03-24T18:08:32.163Z,18.77
2023-03-24T18:18:34.495Z,18.70
2023-03-24T18:28:37.143Z,18.63
2023-03-24T18:38:39.122Z,18.55
2023-03-24T18:48:41.792Z,18.49
2023-03-24T18:58:43.447Z,18.44
2023-03-24T19:08:46.275Z,18.41
2023-03-24T19:18:48.208Z,18.36
2023-03-24T19:28:49.733Z,18.34
2023-03-24T19:38:51.276Z,18.27
2023-03-24T19:48:52.891Z,18.24
2023-03-24T19:58:54.490Z,18.20
2023-03-24T20:08:55.930Z,18.17
2023-03-24T20:18:57.504Z,18.13
2023-03-24T20:28:59.103Z,18.12
2023-03-24T20:39:01.878Z,18.10
2023-03-24T20:49:03.621Z,18.09
2023-03-24T20:59:07.359Z,18.09
2023-03-24T21:09:08.836Z,18.08
2023-03-24T21:19:13.073Z,18.06
2023-03-24T21:29:14.767Z,18.06
2023-03-24T21:39:16.432Z,17.99
2023-03-24T21:49:18.954Z,18.01
2023-03-24T21:59:20.861Z,17.97
2023-03-24T22:09:27.428Z,17.95
2023-03-24T22:19:28.829Z,17.91
2023-03-24T22:29:30.371Z,17.91
2023-03-24T22:39:32.941Z,17.86
2023-03-24T22:49:34.481Z,17.84
2023-03-24T22:59:36.278Z,17.85
2023-03-24T23:09:38.195Z,17.84
2023-03-24T23:19:39.605Z,17.81
2023-03-24T23:29:41.108Z,17.79
2023-03-24T23:39:42.668Z,17.77
2023-03-24T23:49:44.305Z,17.72
2023-03-24T23:59:49.415Z,17.73
